Hc Nadja Maria — V2AV4 — position and weather

sailwx.info

Track history (hours):
 
Tides and Currents Weather Stations Pressure Air Temp Water Temp Dewpoint Dewpoint Depression Visibility Wind Speed Wind Dir Waves Ship Positions

Hc Nadja Maria

Last reported at 2015-Jan-30 05:21 UTC. Time now 2015-Jan-30 12:32 UTC.
Position N 29°56' W 090°21'.

Length 130 m; draft 4.3 m.

Type: Cargo ship. MMSI: 304204000.

Date/timePositionNaut miles runAvg speedWind from/ knotsBaromVisibWave heightAir tempDewpointWater temp
2015-Jan-30 05:21N 29°56' W 090°21'0 0.0
2015-Jan-30 04:33N 29°56' W 090°21'12 1.2
2015-Jan-29 18:29N 29°55' W 090°08'7 5.4
2015-Jan-29 17:17N 29°57' W 090°01'0 0.0
2015-Jan-29 15:20N 29°57' W 090°01'0 0.0
2015-Jan-29 14:05N 29°57' W 090°01'0 0.0
2015-Jan-29 13:08N 29°57' W 090°01'0 0.0
2015-Jan-29 12:29N 29°57' W 090°01'0 0.0
2015-Jan-29 10:32N 29°57' W 090°01'0 0.0
2015-Jan-29 09:32N 29°57' W 090°01'0 0.0
2015-Jan-29 08:32N 29°57' W 090°01'0 0.0
2015-Jan-29 07:29N 29°57' W 090°01'0 0.0
2015-Jan-29 06:32N 29°57' W 090°01'0 0.0
2015-Jan-29 03:23N 29°57' W 090°01'0 0.0
2015-Jan-29 02:32N 29°57' W 090°01'0 0.0
2015-Jan-28 18:14N 29°57' W 090°01'0 0.0
2015-Jan-28 09:17N 29°57' W 090°01'0 0.0
2015-Jan-28 07:26N 29°57' W 090°01'0 0.0
2015-Jan-28 06:23N 29°57' W 090°01'0 0.0
2015-Jan-28 04:32N 29°57' W 090°01'0 0.0
2015-Jan-28 03:26N 29°57' W 090°01'0 0.0
2015-Jan-28 02:20N 29°57' W 090°01'0 0.0
2015-Jan-28 00:26N 29°57' W 090°01'0 0.0
2015-Jan-27 23:11N 29°57' W 090°01'0 0.0
2015-Jan-27 06:26N 29°57' W 090°01'0 0.0
2015-Jan-27 05:08N 29°57' W 090°01'0 0.6
2015-Jan-27 04:19N 29°57' W 090°01'4 1.5
2015-Jan-27 01:32N 29°55' W 090°05'0 0.0
2015-Jan-26 06:08N 29°55' W 090°05'0 0.0
2015-Jan-26 04:23N 29°55' W 090°05'0 0.0
2015-Jan-26 03:14N 29°55' W 090°05'0 0.0
2015-Jan-26 02:14N 29°55' W 090°05'0 0.0
2015-Jan-26 01:17N 29°55' W 090°05'0 0.0
2015-Jan-25 23:11N 29°55' W 090°05'0 0.0
2015-Jan-25 22:14N 29°55' W 090°05'0 0.0
2015-Jan-25 21:17N 29°55' W 090°05'0 0.0
2015-Jan-25 19:29N 29°55' W 090°05'0 0.0
2015-Jan-25 18:08N 29°55' W 090°05'0 0.0
2015-Jan-25 15:32N 29°55' W 090°05'0 0.0
2015-Jan-25 14:26N 29°55' W 090°05'0 0.0
2015-Jan-25 13:20N 29°55' W 090°05'0 0.0
2015-Jan-25 12:32N 29°55' W 090°05'0 0.0
2015-Jan-25 11:26N 29°55' W 090°05'0 0.0
2015-Jan-24 10:32N 29°55' W 090°05'0 0.0
2015-Jan-24 08:11N 29°55' W 090°05'0 0.0
2015-Jan-24 03:08N 29°55' W 090°05'0 0.0
2015-Jan-24 01:32N 29°55' W 090°05'0 0.0
2015-Jan-24 00:17N 29°55' W 090°05'0 0.0
2015-Jan-23 22:20N 29°55' W 090°05'0 0.0
2015-Jan-23 20:32N 29°55' W 090°05'0 0.0
2015-Jan-23 17:26N 29°55' W 090°05'0 0.0
2015-Jan-23 16:20N 29°55' W 090°05'0 0.0
2015-Jan-23 15:32N 29°55' W 090°05'6 4.1
2015-Jan-23 14:10N 29°56' W 089°59'  
2015-Jan-20 13:28N 25°40' W 079°34'1210.6
2015-Jan-20 12:22N 25°52' W 079°33'910.7
2015-Jan-20 11:33N 26°00' W 079°31'1110.7
2015-Jan-20 10:33N 26°11' W 079°29'2210.8
2015-Jan-20 08:30N 26°33' W 079°25'  
Track history (hours):
 
Tides and Currents Weather Stations Pressure Air Temp Water Temp Dewpoint Dewpoint Depression Visibility Wind Speed Wind Dir Waves Ship Positions

Hc Nadja Maria

Last reported at 2015-Jan-30 05:21 UTC. Time now 2015-Jan-30 12:32 UTC.
Position N 29°56' W 090°21'.

Length 130 m; draft 4.3 m.

Type: Cargo ship. MMSI: 304204000.

Date/timePositionNaut miles runAvg speedWind from/ knotsBaromVisibWave heightAir tempDewpointWater temp
2015-Jan-30 05:21N 29°56' W 090°21'0 0.0
2015-Jan-30 04:33N 29°56' W 090°21'12 1.2
2015-Jan-29 18:29N 29°55' W 090°08'7 5.4
2015-Jan-29 17:17N 29°57' W 090°01'0 0.0
2015-Jan-29 15:20N 29°57' W 090°01'0 0.0
2015-Jan-29 14:05N 29°57' W 090°01'0 0.0
2015-Jan-29 13:08N 29°57' W 090°01'0 0.0
2015-Jan-29 12:29N 29°57' W 090°01'0 0.0
2015-Jan-29 10:32N 29°57' W 090°01'0 0.0
2015-Jan-29 09:32N 29°57' W 090°01'0 0.0
2015-Jan-29 08:32N 29°57' W 090°01'0 0.0
2015-Jan-29 07:29N 29°57' W 090°01'0 0.0
2015-Jan-29 06:32N 29°57' W 090°01'0 0.0
2015-Jan-29 03:23N 29°57' W 090°01'0 0.0
2015-Jan-29 02:32N 29°57' W 090°01'0 0.0
2015-Jan-28 18:14N 29°57' W 090°01'0 0.0
2015-Jan-28 09:17N 29°57' W 090°01'0 0.0
2015-Jan-28 07:26N 29°57' W 090°01'0 0.0
2015-Jan-28 06:23N 29°57' W 090°01'0 0.0
2015-Jan-28 04:32N 29°57' W 090°01'0 0.0
2015-Jan-28 03:26N 29°57' W 090°01'0 0.0
2015-Jan-28 02:20N 29°57' W 090°01'0 0.0
2015-Jan-28 00:26N 29°57' W 090°01'0 0.0
2015-Jan-27 23:11N 29°57' W 090°01'0 0.0
2015-Jan-27 06:26N 29°57' W 090°01'0 0.0
2015-Jan-27 05:08N 29°57' W 090°01'0 0.6
2015-Jan-27 04:19N 29°57' W 090°01'4 1.5
2015-Jan-27 01:32N 29°55' W 090°05'0 0.0
2015-Jan-26 06:08N 29°55' W 090°05'0 0.0
2015-Jan-26 04:23N 29°55' W 090°05'0 0.0
2015-Jan-26 03:14N 29°55' W 090°05'0 0.0
2015-Jan-26 02:14N 29°55' W 090°05'0 0.0
2015-Jan-26 01:17N 29°55' W 090°05'0 0.0
2015-Jan-25 23:11N 29°55' W 090°05'0 0.0
2015-Jan-25 22:14N 29°55' W 090°05'0 0.0
2015-Jan-25 21:17N 29°55' W 090°05'0 0.0
2015-Jan-25 19:29N 29°55' W 090°05'0 0.0
2015-Jan-25 18:08N 29°55' W 090°05'0 0.0
2015-Jan-25 15:32N 29°55' W 090°05'0 0.0
2015-Jan-25 14:26N 29°55' W 090°05'0 0.0
2015-Jan-25 13:20N 29°55' W 090°05'0 0.0
2015-Jan-25 12:32N 29°55' W 090°05'0 0.0
2015-Jan-25 11:26N 29°55' W 090°05'0 0.0
2015-Jan-24 10:32N 29°55' W 090°05'0 0.0
2015-Jan-24 08:11N 29°55' W 090°05'0 0.0
2015-Jan-24 03:08N 29°55' W 090°05'0 0.0
2015-Jan-24 01:32N 29°55' W 090°05'0 0.0
2015-Jan-24 00:17N 29°55' W 090°05'0 0.0
2015-Jan-23 22:20N 29°55' W 090°05'0 0.0
2015-Jan-23 20:32N 29°55' W 090°05'0 0.0
2015-Jan-23 17:26N 29°55' W 090°05'0 0.0
2015-Jan-23 16:20N 29°55' W 090°05'0 0.0
2015-Jan-23 15:32N 29°55' W 090°05'6 4.1
2015-Jan-23 14:10N 29°56' W 089°59'  
2015-Jan-20 13:28N 25°40' W 079°34'1210.6
2015-Jan-20 12:22N 25°52' W 079°33'910.7
2015-Jan-20 11:33N 26°00' W 079°31'1110.7
2015-Jan-20 10:33N 26°11' W 079°29'2210.8
2015-Jan-20 08:30N 26°33' W 079°25'  

Dump ship's entire track history